sensor_id;sensor_type;location;lat;lon;timestamp;P1;durP1;ratioP1;P2;durP2;ratioP2
16117;SDS011;8163;50.118;5.342;2022-07-22T00:02:02;16.33;;;10.77;;
16117;SDS011;8163;50.118;5.342;2022-07-22T00:04:29;12.82;;;10.15;;
16117;SDS011;8163;50.118;5.342;2022-07-22T00:06:59;15.98;;;11.10;;
16117;SDS011;8163;50.118;5.342;2022-07-22T00:09:26;16.23;;;10.13;;
16117;SDS011;8163;50.118;5.342;2022-07-22T00:11:56;15.02;;;10.35;;
16117;SDS011;8163;50.118;5.342;2022-07-22T00:14:23;14.63;;;9.65;;
16117;SDS011;8163;50.118;5.342;2022-07-22T00:16:50;14.90;;;10.35;;
16117;SDS011;8163;50.118;5.342;2022-07-22T00:19:17;15.07;;;10.75;;
16117;SDS011;8163;50.118;5.342;2022-07-22T00:21:45;17.92;;;10.38;;
16117;SDS011;8163;50.118;5.342;2022-07-22T00:24:12;12.95;;;9.98;;
16117;SDS011;8163;50.118;5.342;2022-07-22T00:26:39;16.92;;;10.57;;
16117;SDS011;8163;50.118;5.342;2022-07-22T00:29:08;17.75;;;10.32;;
16117;SDS011;8163;50.118;5.342;2022-07-22T00:31:35;14.55;;;10.82;;
16117;SDS011;8163;50.118;5.342;2022-07-22T00:34:03;16.67;;;10.82;;
16117;SDS011;8163;50.118;5.342;2022-07-22T00:36:30;17.25;;;11.38;;
16117;SDS011;8163;50.118;5.342;2022-07-22T00:38:57;14.07;;;10.68;;
16117;SDS011;8163;50.118;5.342;2022-07-22T00:41:25;13.77;;;11.32;;
16117;SDS011;8163;50.118;5.342;2022-07-22T00:43:53;15.85;;;10.60;;
16117;SDS011;8163;50.118;5.342;2022-07-22T00:46:22;18.35;;;11.43;;
16117;SDS011;8163;50.118;5.342;2022-07-22T00:48:51;15.70;;;11.35;;
16117;SDS011;8163;50.118;5.342;2022-07-22T00:51:18;14.88;;;11.43;;
16117;SDS011;8163;50.118;5.342;2022-07-22T00:53:46;14.45;;;11.05;;
16117;SDS011;8163;50.118;5.342;2022-07-22T00:56:14;16.70;;;10.82;;
16117;SDS011;8163;50.118;5.342;2022-07-22T00:58:43;13.15;;;11.05;;
16117;SDS011;8163;50.118;5.342;2022-07-22T01:01:10;13.95;;;10.40;;
16117;SDS011;8163;50.118;5.342;2022-07-22T01:03:39;17.42;;;9.95;;
16117;SDS011;8163;50.118;5.342;2022-07-22T01:06:08;14.20;;;10.10;;
16117;SDS011;8163;50.118;5.342;2022-07-22T01:08:36;20.85;;;10.48;;
16117;SDS011;8163;50.118;5.342;2022-07-22T01:11:08;15.65;;;9.00;;
16117;SDS011;8163;50.118;5.342;2022-07-22T01:13:36;9.10;;;7.90;;
16117;SDS011;8163;50.118;5.342;2022-07-22T01:16:04;11.52;;;8.40;;
16117;SDS011;8163;50.118;5.342;2022-07-22T01:18:34;11.77;;;8.55;;
16117;SDS011;8163;50.118;5.342;2022-07-22T01:21:02;14.77;;;8.48;;
16117;SDS011;8163;50.118;5.342;2022-07-22T01:23:30;8.80;;;7.47;;
16117;SDS011;8163;50.118;5.342;2022-07-22T01:25:58;13.65;;;8.07;;
16117;SDS011;8163;50.118;5.342;2022-07-22T01:28:25;10.52;;;7.10;;
16117;SDS011;8163;50.118;5.342;2022-07-22T01:30:52;12.43;;;7.93;;
16117;SDS011;8163;50.118;5.342;2022-07-22T01:33:20;11.65;;;7.60;;
16117;SDS011;8163;50.118;5.342;2022-07-22T01:35:48;13.75;;;8.05;;
16117;SDS011;8163;50.118;5.342;2022-07-22T01:38:18;10.27;;;7.43;;
16117;SDS011;8163;50.118;5.342;2022-07-22T01:40:45;12.82;;;8.85;;
16117;SDS011;8163;50.118;5.342;2022-07-22T01:43:13;12.27;;;7.13;;
16117;SDS011;8163;50.118;5.342;2022-07-22T01:45:43;17.60;;;7.43;;
16117;SDS011;8163;50.118;5.342;2022-07-22T01:48:11;11.40;;;7.75;;
16117;SDS011;8163;50.118;5.342;2022-07-22T01:50:38;13.13;;;8.70;;
16117;SDS011;8163;50.118;5.342;2022-07-22T01:53:06;12.23;;;8.00;;
16117;SDS011;8163;50.118;5.342;2022-07-22T01:55:35;11.50;;;7.85;;
16117;SDS011;8163;50.118;5.342;2022-07-22T01:58:03;14.82;;;8.30;;
16117;SDS011;8163;50.118;5.342;2022-07-22T02:00:31;16.55;;;7.72;;
16117;SDS011;8163;50.118;5.342;2022-07-22T02:02:59;14.48;;;8.00;;
16117;SDS011;8163;50.118;5.342;2022-07-22T02:05:26;16.00;;;7.60;;
16117;SDS011;8163;50.118;5.342;2022-07-22T02:07:58;10.23;;;7.95;;
16117;SDS011;8163;50.118;5.342;2022-07-22T02:10:26;11.52;;;7.63;;
16117;SDS011;8163;50.118;5.342;2022-07-22T02:12:55;12.95;;;8.27;;
16117;SDS011;8163;50.118;5.342;2022-07-22T02:15:22;14.45;;;7.82;;
16117;SDS011;8163;50.118;5.342;2022-07-22T02:17:50;14.82;;;7.90;;
16117;SDS011;8163;50.118;5.342;2022-07-22T02:20:17;14.98;;;8.80;;
16117;SDS011;8163;50.118;5.342;2022-07-22T02:22:44;14.88;;;7.50;;
16117;SDS011;8163;50.118;5.342;2022-07-22T02:25:11;10.48;;;7.90;;
16117;SDS011;8163;50.118;5.342;2022-07-22T02:27:40;13.63;;;7.82;;
16117;SDS011;8163;50.118;5.342;2022-07-22T02:30:09;17.10;;;8.32;;
16117;SDS011;8163;50.118;5.342;2022-07-22T02:32:38;17.65;;;7.88;;
16117;SDS011;8163;50.118;5.342;2022-07-22T02:35:05;13.40;;;7.80;;
16117;SDS011;8163;50.118;5.342;2022-07-22T02:37:33;13.30;;;7.30;;
16117;SDS011;8163;50.118;5.342;2022-07-22T02:40:02;12.00;;;7.38;;
16117;SDS011;8163;50.118;5.342;2022-07-22T02:42:30;11.45;;;7.93;;
16117;SDS011;8163;50.118;5.342;2022-07-22T02:44:57;13.32;;;7.50;;
16117;SDS011;8163;50.118;5.342;2022-07-22T02:47:26;9.88;;;7.25;;
16117;SDS011;8163;50.118;5.342;2022-07-22T02:49:53;11.25;;;7.72;;
16117;SDS011;8163;50.118;5.342;2022-07-22T02:52:20;9.35;;;6.65;;
16117;SDS011;8163;50.118;5.342;2022-07-22T02:54:47;22.42;;;8.25;;
16117;SDS011;8163;50.118;5.342;2022-07-22T02:57:15;12.32;;;7.32;;
16117;SDS011;8163;50.118;5.342;2022-07-22T02:59:45;9.52;;;6.95;;
16117;SDS011;8163;50.118;5.342;2022-07-22T03:02:12;13.68;;;8.32;;
16117;SDS011;8163;50.118;5.342;2022-07-22T03:04:41;12.98;;;8.10;;
16117;SDS011;8163;50.118;5.342;2022-07-22T03:07:08;14.82;;;7.55;;
16117;SDS011;8163;50.118;5.342;2022-07-22T03:09:35;12.80;;;8.55;;
16117;SDS011;8163;50.118;5.342;2022-07-22T03:12:03;12.57;;;7.50;;
16117;SDS011;8163;50.118;5.342;2022-07-22T03:14:30;14.00;;;8.90;;
16117;SDS011;8163;50.118;5.342;2022-07-22T03:16:58;12.02;;;8.15;;
16117;SDS011;8163;50.118;5.342;2022-07-22T03:19:25;13.43;;;7.28;;
16117;SDS011;8163;50.118;5.342;2022-07-22T03:21:54;14.18;;;8.45;;
16117;SDS011;8163;50.118;5.342;2022-07-22T03:24:21;15.35;;;7.90;;
16117;SDS011;8163;50.118;5.342;2022-07-22T03:26:48;14.52;;;8.48;;
16117;SDS011;8163;50.118;5.342;2022-07-22T03:29:16;12.13;;;7.97;;
16117;SDS011;8163;50.118;5.342;2022-07-22T03:31:43;14.55;;;8.60;;
16117;SDS011;8163;50.118;5.342;2022-07-22T03:34:10;9.15;;;7.60;;
16117;SDS011;8163;50.118;5.342;2022-07-22T03:36:38;13.50;;;8.10;;
16117;SDS011;8163;50.118;5.342;2022-07-22T03:39:06;12.20;;;8.23;;
16117;SDS011;8163;50.118;5.342;2022-07-22T03:41:34;9.85;;;7.65;;
16117;SDS011;8163;50.118;5.342;2022-07-22T03:44:01;14.85;;;8.05;;
16117;SDS011;8163;50.118;5.342;2022-07-22T03:46:29;9.20;;;7.55;;
16117;SDS011;8163;50.118;5.342;2022-07-22T03:48:56;12.27;;;7.88;;
16117;SDS011;8163;50.118;5.342;2022-07-22T03:51:23;10.20;;;7.43;;
16117;SDS011;8163;50.118;5.342;2022-07-22T03:53:50;9.77;;;7.03;;
16117;SDS011;8163;50.118;5.342;2022-07-22T03:56:19;11.98;;;7.70;;
16117;SDS011;8163;50.118;5.342;2022-07-22T03:58:46;9.90;;;7.50;;
16117;SDS011;8163;50.118;5.342;2022-07-22T04:01:14;14.45;;;8.02;;
16117;SDS011;8163;50.118;5.342;2022-07-22T04:03:41;11.25;;;7.05;;
16117;SDS011;8163;50.118;5.342;2022-07-22T04:06:08;11.57;;;6.65;;
16117;SDS011;8163;50.118;5.342;2022-07-22T04:08:36;12.80;;;7.85;;
16117;SDS011;8163;50.118;5.342;2022-07-22T04:11:03;10.52;;;7.07;;
16117;SDS011;8163;50.118;5.342;2022-07-22T04:13:32;16.92;;;8.75;;
16117;SDS011;8163;50.118;5.342;2022-07-22T04:15:59;17.15;;;10.32;;
16117;SDS011;8163;50.118;5.342;2022-07-22T04:18:26;13.82;;;8.07;;
16117;SDS011;8163;50.118;5.342;2022-07-22T04:20:56;13.02;;;7.95;;
16117;SDS011;8163;50.118;5.342;2022-07-22T04:23:24;9.05;;;7.45;;
16117;SDS011;8163;50.118;5.342;2022-07-22T04:25:51;10.68;;;7.72;;
16117;SDS011;8163;50.118;5.342;2022-07-22T04:28:18;12.27;;;9.15;;
16117;SDS011;8163;50.118;5.342;2022-07-22T04:30:47;14.18;;;8.32;;
16117;SDS011;8163;50.118;5.342;2022-07-22T04:33:15;15.52;;;8.05;;
16117;SDS011;8163;50.118;5.342;2022-07-22T04:35:42;13.55;;;7.63;;
16117;SDS011;8163;50.118;5.342;2022-07-22T04:38:10;18.77;;;10.52;;
16117;SDS011;8163;50.118;5.342;2022-07-22T04:40:37;13.50;;;7.45;;
16117;SDS011;8163;50.118;5.342;2022-07-22T04:43:04;9.98;;;6.68;;
16117;SDS011;8163;50.118;5.342;2022-07-22T04:45:34;10.43;;;7.72;;
16117;SDS011;8163;50.118;5.342;2022-07-22T04:48:03;12.02;;;7.10;;
16117;SDS011;8163;50.118;5.342;2022-07-22T04:50:31;13.60;;;6.60;;
16117;SDS011;8163;50.118;5.342;2022-07-22T04:52:58;8.73;;;6.60;;
16117;SDS011;8163;50.118;5.342;2022-07-22T04:55:25;8.68;;;6.20;;
16117;SDS011;8163;50.118;5.342;2022-07-22T04:57:54;11.98;;;7.10;;
16117;SDS011;8163;50.118;5.342;2022-07-22T05:00:22;8.73;;;6.13;;
16117;SDS011;8163;50.118;5.342;2022-07-22T05:02:50;9.40;;;6.55;;
16117;SDS011;8163;50.118;5.342;2022-07-22T05:05:22;6.40;;;5.18;;
16117;SDS011;8163;50.118;5.342;2022-07-22T05:07:50;11.48;;;6.60;;
16117;SDS011;8163;50.118;5.342;2022-07-22T05:10:18;16.30;;;7.45;;
16117;SDS011;8163;50.118;5.342;2022-07-22T05:12:45;6.82;;;5.95;;
16117;SDS011;8163;50.118;5.342;2022-07-22T05:15:12;6.45;;;5.10;;
16117;SDS011;8163;50.118;5.342;2022-07-22T05:17:40;7.00;;;5.45;;
16117;SDS011;8163;50.118;5.342;2022-07-22T05:20:07;8.23;;;5.70;;
16117;SDS011;8163;50.118;5.342;2022-07-22T05:22:37;10.48;;;6.07;;
16117;SDS011;8163;50.118;5.342;2022-07-22T05:25:04;8.50;;;5.40;;
16117;SDS011;8163;50.118;5.342;2022-07-22T05:27:32;9.60;;;6.72;;
16117;SDS011;8163;50.118;5.342;2022-07-22T05:29:59;6.78;;;4.78;;
16117;SDS011;8163;50.118;5.342;2022-07-22T05:32:26;7.10;;;4.45;;
16117;SDS011;8163;50.118;5.342;2022-07-22T05:34:53;6.45;;;4.82;;
16117;SDS011;8163;50.118;5.342;2022-07-22T05:37:20;7.72;;;5.25;;
16117;SDS011;8163;50.118;5.342;2022-07-22T05:39:49;5.70;;;4.13;;
16117;SDS011;8163;50.118;5.342;2022-07-22T05:42:16;6.35;;;4.68;;
16117;SDS011;8163;50.118;5.342;2022-07-22T05:44:44;5.13;;;4.30;;
16117;SDS011;8163;50.118;5.342;2022-07-22T05:47:11;6.20;;;5.05;;
16117;SDS011;8163;50.118;5.342;2022-07-22T05:49:38;5.40;;;4.07;;
16117;SDS011;8163;50.118;5.342;2022-07-22T05:52:05;8.10;;;4.80;;
16117;SDS011;8163;50.118;5.342;2022-07-22T05:54:33;7.60;;;5.00;;
16117;SDS011;8163;50.118;5.342;2022-07-22T05:57:01;5.85;;;4.68;;
16117;SDS011;8163;50.118;5.342;2022-07-22T05:59:28;6.28;;;5.72;;
16117;SDS011;8163;50.118;5.342;2022-07-22T06:01:56;6.13;;;5.53;;
16117;SDS011;8163;50.118;5.342;2022-07-22T06:04:23;4.55;;;4.15;;
16117;SDS011;8163;50.118;5.342;2022-07-22T06:06:50;5.18;;;4.55;;
16117;SDS011;8163;50.118;5.342;2022-07-22T06:09:18;5.07;;;4.28;;
16117;SDS011;8163;50.118;5.342;2022-07-22T06:11:47;5.18;;;4.00;;
16117;SDS011;8163;50.118;5.342;2022-07-22T06:14:15;13.50;;;12.00;;
16117;SDS011;8163;50.118;5.342;2022-07-22T06:16:43;6.28;;;4.07;;
16117;SDS011;8163;50.118;5.342;2022-07-22T06:19:10;6.45;;;5.82;;
16117;SDS011;8163;50.118;5.342;2022-07-22T06:21:38;4.70;;;4.00;;
16117;SDS011;8163;50.118;5.342;2022-07-22T06:24:05;5.15;;;4.75;;
16117;SDS011;8163;50.118;5.342;2022-07-22T06:26:33;7.90;;;4.88;;
16117;SDS011;8163;50.118;5.342;2022-07-22T06:29:00;7.50;;;4.78;;
16117;SDS011;8163;50.118;5.342;2022-07-22T06:31:30;6.25;;;3.90;;
16117;SDS011;8163;50.118;5.342;2022-07-22T06:33:57;5.38;;;4.40;;
16117;SDS011;8163;50.118;5.342;2022-07-22T06:36:25;6.15;;;4.15;;
16117;SDS011;8163;50.118;5.342;2022-07-22T06:38:53;9.20;;;4.97;;
16117;SDS011;8163;50.118;5.342;2022-07-22T06:41:21;4.68;;;3.70;;
16117;SDS011;8163;50.118;5.342;2022-07-22T06:43:48;6.30;;;3.95;;
16117;SDS011;8163;50.118;5.342;2022-07-22T06:46:15;4.80;;;4.20;;
16117;SDS011;8163;50.118;5.342;2022-07-22T06:48:44;6.72;;;6.00;;
16117;SDS011;8163;50.118;5.342;2022-07-22T06:51:11;5.65;;;5.07;;
16117;SDS011;8163;50.118;5.342;2022-07-22T06:53:40;6.10;;;4.68;;
16117;SDS011;8163;50.118;5.342;2022-07-22T06:56:08;5.30;;;4.80;;
16117;SDS011;8163;50.118;5.342;2022-07-22T06:58:35;6.85;;;6.35;;
16117;SDS011;8163;50.118;5.342;2022-07-22T07:01:03;7.25;;;6.55;;
16117;SDS011;8163;50.118;5.342;2022-07-22T07:03:30;6.85;;;6.20;;
16117;SDS011;8163;50.118;5.342;2022-07-22T07:05:59;8.18;;;7.45;;
16117;SDS011;8163;50.118;5.342;2022-07-22T07:08:29;8.48;;;7.75;;
16117;SDS011;8163;50.118;5.342;2022-07-22T07:11:02;8.70;;;8.02;;
16117;SDS011;8163;50.118;5.342;2022-07-22T07:13:34;9.05;;;8.27;;
16117;SDS011;8163;50.118;5.342;2022-07-22T07:16:04;9.27;;;8.23;;
16117;SDS011;8163;50.118;5.342;2022-07-22T07:18:35;8.77;;;8.00;;
16117;SDS011;8163;50.118;5.342;2022-07-22T07:21:17;9.23;;;8.32;;
16117;SDS011;8163;50.118;5.342;2022-07-22T07:23:50;8.65;;;8.05;;
16117;SDS011;8163;50.118;5.342;2022-07-22T07:26:19;10.45;;;8.35;;
16117;SDS011;8163;50.118;5.342;2022-07-22T07:28:48;8.13;;;7.38;;
16117;SDS011;8163;50.118;5.342;2022-07-22T07:31:19;8.75;;;8.00;;
16117;SDS011;8163;50.118;5.342;2022-07-22T07:33:59;8.63;;;8.02;;
16117;SDS011;8163;50.118;5.342;2022-07-22T07:39:42;8.73;;;8.02;;
16117;SDS011;8163;50.118;5.342;2022-07-22T07:42:26;9.43;;;8.55;;
16117;SDS011;8163;50.118;5.342;2022-07-22T07:44:54;42.35;;;10.57;;
16117;SDS011;8163;50.118;5.342;2022-07-22T07:47:24;8.95;;;8.25;;
16117;SDS011;8163;50.118;5.342;2022-07-22T07:49:56;8.35;;;7.68;;
16117;SDS011;8163;50.118;5.342;2022-07-22T07:52:27;8.48;;;7.88;;
16117;SDS011;8163;50.118;5.342;2022-07-22T07:54:56;8.50;;;7.68;;
16117;SDS011;8163;50.118;5.342;2022-07-22T07:57:24;9.10;;;8.23;;
16117;SDS011;8163;50.118;5.342;2022-07-22T07:59:54;8.52;;;7.82;;
16117;SDS011;8163;50.118;5.342;2022-07-22T08:02:21;6.85;;;6.35;;
16117;SDS011;8163;50.118;5.342;2022-07-22T08:04:48;6.15;;;5.72;;
16117;SDS011;8163;50.118;5.342;2022-07-22T08:07:16;6.40;;;5.80;;
16117;SDS011;8163;50.118;5.342;2022-07-22T08:09:46;6.15;;;5.70;;
16117;SDS011;8163;50.118;5.342;2022-07-22T08:12:13;4.88;;;4.50;;
16117;SDS011;8163;50.118;5.342;2022-07-22T08:14:40;6.38;;;5.28;;
16117;SDS011;8163;50.118;5.342;2022-07-22T08:17:10;5.38;;;4.97;;
16117;SDS011;8163;50.118;5.342;2022-07-22T08:19:37;6.18;;;5.13;;
16117;SDS011;8163;50.118;5.342;2022-07-22T08:22:05;4.88;;;4.57;;
16117;SDS011;8163;50.118;5.342;2022-07-22T08:27:05;12.30;;;11.35;;
16117;SDS011;8163;50.118;5.342;2022-07-22T08:29:32;5.15;;;4.72;;
16117;SDS011;8163;50.118;5.342;2022-07-22T08:32:01;4.35;;;3.97;;
16117;SDS011;8163;50.118;5.342;2022-07-22T08:34:28;4.80;;;4.40;;
16117;SDS011;8163;50.118;5.342;2022-07-22T08:36:55;3.88;;;3.65;;
16117;SDS011;8163;50.118;5.342;2022-07-22T08:39:22;5.72;;;3.70;;
16117;SDS011;8163;50.118;5.342;2022-07-22T08:41:49;3.60;;;3.40;;
16117;SDS011;8163;50.118;5.342;2022-07-22T08:44:18;3.90;;;3.50;;
16117;SDS011;8163;50.118;5.342;2022-07-22T08:46:46;3.85;;;3.22;;
16117;SDS011;8163;50.118;5.342;2022-07-22T08:49:16;3.45;;;3.25;;
16117;SDS011;8163;50.118;5.342;2022-07-22T08:51:49;3.47;;;3.17;;
16117;SDS011;8163;50.118;5.342;2022-07-22T08:54:17;3.25;;;3.05;;
16117;SDS011;8163;50.118;5.342;2022-07-22T08:56:46;4.75;;;3.10;;
16117;SDS011;8163;50.118;5.342;2022-07-22T08:59:16;3.22;;;2.92;;
16117;SDS011;8163;50.118;5.342;2022-07-22T09:02:03;4.70;;;3.28;;
16117;SDS011;8163;50.118;5.342;2022-07-22T09:07:30;3.80;;;3.50;;
16117;SDS011;8163;50.118;5.342;2022-07-22T09:47:37;5.72;;;3.45;;
16117;SDS011;8163;50.118;5.342;2022-07-22T09:50:13;3.55;;;3.25;;
16117;SDS011;8163;50.118;5.342;2022-07-22T09:52:45;3.80;;;3.50;;
16117;SDS011;8163;50.118;5.342;2022-07-22T09:55:13;3.25;;;3.05;;
16117;SDS011;8163;50.118;5.342;2022-07-22T09:57:43;4.55;;;3.38;;
16117;SDS011;8163;50.118;5.342;2022-07-22T10:00:15;3.35;;;3.10;;
16117;SDS011;8163;50.118;5.342;2022-07-22T10:02:47;3.75;;;3.33;;
16117;SDS011;8163;50.118;5.342;2022-07-22T10:05:17;3.28;;;3.08;;
16117;SDS011;8163;50.118;5.342;2022-07-22T10:07:47;4.85;;;3.47;;
16117;SDS011;8163;50.118;5.342;2022-07-22T10:10:15;3.47;;;3.20;;
16117;SDS011;8163;50.118;5.342;2022-07-22T10:12:44;3.38;;;3.08;;
16117;SDS011;8163;50.118;5.342;2022-07-22T10:15:13;3.22;;;3.00;;
16117;SDS011;8163;50.118;5.342;2022-07-22T10:17:42;4.82;;;4.53;;
16117;SDS011;8163;50.118;5.342;2022-07-22T10:20:11;4.68;;;4.20;;
16117;SDS011;8163;50.118;5.342;2022-07-22T10:22:44;3.60;;;3.33;;
16117;SDS011;8163;50.118;5.342;2022-07-22T10:25:16;3.97;;;3.67;;
16117;SDS011;8163;50.118;5.342;2022-07-22T10:27:45;5.43;;;3.88;;
16117;SDS011;8163;50.118;5.342;2022-07-22T10:30:20;3.55;;;3.28;;
16117;SDS011;8163;50.118;5.342;2022-07-22T10:33:09;6.03;;;3.80;;
16117;SDS011;8163;50.118;5.342;2022-07-22T10:36:01;4.22;;;3.80;;
16117;SDS011;8163;50.118;5.342;2022-07-22T10:39:00;3.80;;;3.50;;
16117;SDS011;8163;50.118;5.342;2022-07-22T10:41:54;6.22;;;4.20;;
16117;SDS011;8163;50.118;5.342;2022-07-22T10:47:18;6.20;;;4.45;;
16117;SDS011;8163;50.118;5.342;2022-07-22T10:50:47;5.90;;;4.05;;
16117;SDS011;8163;50.118;5.342;2022-07-22T10:56:46;6.15;;;3.83;;
16117;SDS011;8163;50.118;5.342;2022-07-22T10:59:22;4.45;;;4.13;;
16117;SDS011;8163;50.118;5.342;2022-07-22T11:05:03;7.40;;;3.88;;
16117;SDS011;8163;50.118;5.342;2022-07-22T11:07:41;5.30;;;4.35;;
16117;SDS011;8163;50.118;5.342;2022-07-22T11:10:46;5.93;;;4.20;;
16117;SDS011;8163;50.118;5.342;2022-07-22T11:16:16;4.28;;;3.85;;
16117;SDS011;8163;50.118;5.342;2022-07-22T11:18:47;7.10;;;4.82;;
16117;SDS011;8163;50.118;5.342;2022-07-22T11:21:24;5.20;;;4.28;;
16117;SDS011;8163;50.118;5.342;2022-07-22T11:23:54;5.25;;;4.30;;
16117;SDS011;8163;50.118;5.342;2022-07-22T11:26:25;4.85;;;4.35;;
16117;SDS011;8163;50.118;5.342;2022-07-22T11:29:04;5.70;;;4.38;;
16117;SDS011;8163;50.118;5.342;2022-07-22T11:31:32;4.32;;;3.80;;
16117;SDS011;8163;50.118;5.342;2022-07-22T11:34:08;4.93;;;4.43;;
16117;SDS011;8163;50.118;5.342;2022-07-22T11:36:38;5.13;;;4.72;;
16117;SDS011;8163;50.118;5.342;2022-07-22T11:39:08;4.93;;;4.25;;
16117;SDS011;8163;50.118;5.342;2022-07-22T11:41:38;4.47;;;4.05;;
16117;SDS011;8163;50.118;5.342;2022-07-22T11:44:06;5.13;;;4.70;;
16117;SDS011;8163;50.118;5.342;2022-07-22T11:46:37;4.90;;;4.50;;
16117;SDS011;8163;50.118;5.342;2022-07-22T11:49:05;4.10;;;3.80;;
16117;SDS011;8163;50.118;5.342;2022-07-22T11:51:34;4.60;;;4.20;;
16117;SDS011;8163;50.118;5.342;2022-07-22T11:54:04;4.38;;;3.97;;
16117;SDS011;8163;50.118;5.342;2022-07-22T11:56:32;4.32;;;4.03;;
16117;SDS011;8163;50.118;5.342;2022-07-22T11:59:02;6.88;;;4.60;;
16117;SDS011;8163;50.118;5.342;2022-07-22T12:01:32;5.68;;;5.07;;
16117;SDS011;8163;50.118;5.342;2022-07-22T12:04:04;7.38;;;6.38;;
16117;SDS011;8163;50.118;5.342;2022-07-22T12:06:34;4.97;;;4.53;;
16117;SDS011;8163;50.118;5.342;2022-07-22T12:09:06;4.88;;;4.38;;
16117;SDS011;8163;50.118;5.342;2022-07-22T12:11:35;6.43;;;4.35;;
16117;SDS011;8163;50.118;5.342;2022-07-22T12:14:08;6.18;;;4.68;;
16117;SDS011;8163;50.118;5.342;2022-07-22T12:19:20;5.10;;;4.40;;
16117;SDS011;8163;50.118;5.342;2022-07-22T12:21:50;4.95;;;4.07;;
16117;SDS011;8163;50.118;5.342;2022-07-22T12:24:30;5.35;;;4.45;;
16117;SDS011;8163;50.118;5.342;2022-07-22T12:26:59;4.70;;;4.30;;
16117;SDS011;8163;50.118;5.342;2022-07-22T12:29:30;5.28;;;4.78;;
16117;SDS011;8163;50.118;5.342;2022-07-22T12:32:08;4.38;;;3.97;;
16117;SDS011;8163;50.118;5.342;2022-07-22T12:34:37;4.70;;;4.40;;
16117;SDS011;8163;50.118;5.342;2022-07-22T12:37:17;4.93;;;4.43;;
16117;SDS011;8163;50.118;5.342;2022-07-22T12:39:54;5.30;;;4.90;;
16117;SDS011;8163;50.118;5.342;2022-07-22T12:42:22;4.95;;;4.28;;
16117;SDS011;8163;50.118;5.342;2022-07-22T12:44:54;5.85;;;5.13;;
16117;SDS011;8163;50.118;5.342;2022-07-22T12:47:40;4.50;;;4.20;;
16117;SDS011;8163;50.118;5.342;2022-07-22T12:50:19;5.03;;;3.75;;
16117;SDS011;8163;50.118;5.342;2022-07-22T12:52:49;4.85;;;4.45;;
16117;SDS011;8163;50.118;5.342;2022-07-22T12:55:17;6.32;;;3.75;;
16117;SDS011;8163;50.118;5.342;2022-07-22T12:57:45;4.05;;;3.75;;
16117;SDS011;8163;50.118;5.342;2022-07-22T13:00:17;7.43;;;5.00;;
16117;SDS011;8163;50.118;5.342;2022-07-22T13:02:46;4.32;;;3.92;;
16117;SDS011;8163;50.118;5.342;2022-07-22T13:05:14;5.43;;;3.83;;
16117;SDS011;8163;50.118;5.342;2022-07-22T13:07:42;5.25;;;4.47;;
16117;SDS011;8163;50.118;5.342;2022-07-22T13:10:13;4.90;;;3.80;;
16117;SDS011;8163;50.118;5.342;2022-07-22T13:12:44;4.85;;;4.18;;
16117;SDS011;8163;50.118;5.342;2022-07-22T13:15:19;4.43;;;3.83;;
16117;SDS011;8163;50.118;5.342;2022-07-22T13:17:50;4.55;;;4.25;;
16117;SDS011;8163;50.118;5.342;2022-07-22T13:20:19;6.65;;;4.70;;
16117;SDS011;8163;50.118;5.342;2022-07-22T13:22:47;4.53;;;4.13;;
16117;SDS011;8163;50.118;5.342;2022-07-22T13:25:14;5.43;;;4.90;;
16117;SDS011;8163;50.118;5.342;2022-07-22T13:27:42;4.38;;;3.97;;
16117;SDS011;8163;50.118;5.342;2022-07-22T13:30:10;5.53;;;4.82;;
16117;SDS011;8163;50.118;5.342;2022-07-22T13:32:39;6.88;;;5.05;;
16117;SDS011;8163;50.118;5.342;2022-07-22T13:35:07;7.75;;;4.75;;
16117;SDS011;8163;50.118;5.342;2022-07-22T13:37:34;4.95;;;4.55;;
16117;SDS011;8163;50.118;5.342;2022-07-22T13:40:04;4.50;;;4.20;;
16117;SDS011;8163;50.118;5.342;2022-07-22T13:42:32;4.82;;;4.50;;
16117;SDS011;8163;50.118;5.342;2022-07-22T13:45:00;5.25;;;4.82;;
16117;SDS011;8163;50.118;5.342;2022-07-22T13:47:28;5.60;;;4.40;;
16117;SDS011;8163;50.118;5.342;2022-07-22T13:49:57;4.65;;;4.28;;
16117;SDS011;8163;50.118;5.342;2022-07-22T13:52:25;5.22;;;4.78;;
16117;SDS011;8163;50.118;5.342;2022-07-22T13:54:52;5.25;;;4.47;;
16117;SDS011;8163;50.118;5.342;2022-07-22T13:57:19;5.20;;;4.72;;
16117;SDS011;8163;50.118;5.342;2022-07-22T13:59:47;6.60;;;4.50;;
16117;SDS011;8163;50.118;5.342;2022-07-22T14:02:14;4.95;;;4.15;;
16117;SDS011;8163;50.118;5.342;2022-07-22T14:04:41;4.57;;;4.18;;
16117;SDS011;8163;50.118;5.342;2022-07-22T14:07:09;4.97;;;4.57;;
16117;SDS011;8163;50.118;5.342;2022-07-22T14:09:36;5.22;;;4.72;;
16117;SDS011;8163;50.118;5.342;2022-07-22T14:12:04;4.82;;;4.43;;
16117;SDS011;8163;50.118;5.342;2022-07-22T14:14:31;5.70;;;4.63;;
16117;SDS011;8163;50.118;5.342;2022-07-22T14:16:59;4.90;;;4.53;;
16117;SDS011;8163;50.118;5.342;2022-07-22T14:19:26;7.75;;;4.53;;
16117;SDS011;8163;50.118;5.342;2022-07-22T14:21:53;5.15;;;4.57;;
16117;SDS011;8163;50.118;5.342;2022-07-22T14:24:22;4.70;;;4.30;;
16117;SDS011;8163;50.118;5.342;2022-07-22T14:26:50;5.20;;;4.68;;
16117;SDS011;8163;50.118;5.342;2022-07-22T14:29:17;5.38;;;4.72;;
16117;SDS011;8163;50.118;5.342;2022-07-22T14:31:46;4.22;;;3.83;;
16117;SDS011;8163;50.118;5.342;2022-07-22T14:34:14;4.55;;;4.15;;
16117;SDS011;8163;50.118;5.342;2022-07-22T14:36:41;5.45;;;4.88;;
16117;SDS011;8163;50.118;5.342;2022-07-22T14:39:08;4.25;;;3.95;;
16117;SDS011;8163;50.118;5.342;2022-07-22T14:41:37;4.50;;;4.13;;
16117;SDS011;8163;50.118;5.342;2022-07-22T14:44:04;5.75;;;4.15;;
16117;SDS011;8163;50.118;5.342;2022-07-22T14:46:32;4.72;;;4.32;;
16117;SDS011;8163;50.118;5.342;2022-07-22T14:49:00;4.35;;;3.95;;
16117;SDS011;8163;50.118;5.342;2022-07-22T14:51:27;6.78;;;4.70;;
16117;SDS011;8163;50.118;5.342;2022-07-22T14:53:56;5.45;;;4.10;;
16117;SDS011;8163;50.118;5.342;2022-07-22T14:56:23;4.32;;;4.03;;
16117;SDS011;8163;50.118;5.342;2022-07-22T14:58:52;5.22;;;3.90;;
16117;SDS011;8163;50.118;5.342;2022-07-22T15:01:19;4.78;;;4.32;;
16117;SDS011;8163;50.118;5.342;2022-07-22T15:03:46;5.10;;;4.63;;
16117;SDS011;8163;50.118;5.342;2022-07-22T15:06:14;4.35;;;3.95;;
16117;SDS011;8163;50.118;5.342;2022-07-22T15:08:41;7.90;;;4.70;;
16117;SDS011;8163;50.118;5.342;2022-07-22T15:11:08;5.68;;;5.05;;
16117;SDS011;8163;50.118;5.342;2022-07-22T15:13:36;7.60;;;6.72;;
16117;SDS011;8163;50.118;5.342;2022-07-22T15:16:05;5.75;;;5.15;;
16117;SDS011;8163;50.118;5.342;2022-07-22T15:18:33;4.68;;;4.28;;
16117;SDS011;8163;50.118;5.342;2022-07-22T15:21:01;4.90;;;4.50;;
16117;SDS011;8163;50.118;5.342;2022-07-22T15:23:28;4.95;;;4.65;;
16117;SDS011;8163;50.118;5.342;2022-07-22T15:25:56;6.10;;;4.90;;
16117;SDS011;8163;50.118;5.342;2022-07-22T15:28:23;6.18;;;5.22;;
16117;SDS011;8163;50.118;5.342;2022-07-22T15:30:51;5.90;;;5.10;;
16117;SDS011;8163;50.118;5.342;2022-07-22T15:33:20;6.50;;;5.10;;
16117;SDS011;8163;50.118;5.342;2022-07-22T15:35:47;5.03;;;4.47;;
16117;SDS011;8163;50.118;5.342;2022-07-22T15:38:14;8.95;;;4.78;;
16117;SDS011;8163;50.118;5.342;2022-07-22T15:40:41;5.22;;;4.82;;
16117;SDS011;8163;50.118;5.342;2022-07-22T15:43:08;6.72;;;4.70;;
16117;SDS011;8163;50.118;5.342;2022-07-22T15:45:35;5.60;;;4.93;;
16117;SDS011;8163;50.118;5.342;2022-07-22T15:48:03;4.93;;;4.43;;
16117;SDS011;8163;50.118;5.342;2022-07-22T15:50:32;5.00;;;4.45;;
16117;SDS011;8163;50.118;5.342;2022-07-22T15:52:59;5.65;;;4.60;;
16117;SDS011;8163;50.118;5.342;2022-07-22T15:55:27;5.13;;;4.63;;
16117;SDS011;8163;50.118;5.342;2022-07-22T15:57:56;5.20;;;4.75;;
16117;SDS011;8163;50.118;5.342;2022-07-22T16:00:40;4.95;;;4.57;;
16117;SDS011;8163;50.118;5.342;2022-07-22T16:03:08;5.82;;;4.53;;
16117;SDS011;8163;50.118;5.342;2022-07-22T16:05:38;5.30;;;4.80;;
16117;SDS011;8163;50.118;5.342;2022-07-22T16:08:06;5.28;;;4.78;;
16117;SDS011;8163;50.118;5.342;2022-07-22T16:10:33;6.75;;;5.07;;